createdAt,value
2022-11-12T00:00:32.164Z,6.70
2022-11-12T00:03:19.758Z,6.66
2022-11-12T00:06:06.629Z,6.63
2022-11-12T00:08:53.262Z,6.58
2022-11-12T00:11:40.249Z,6.53
2022-11-12T00:14:26.857Z,6.49
2022-11-12T00:17:13.616Z,6.45
2022-11-12T00:20:00.572Z,6.41
2022-11-12T00:22:47.655Z,6.38
2022-11-12T00:25:34.551Z,6.33
2022-11-12T00:28:21.245Z,6.29
2022-11-12T00:31:12.421Z,6.25
2022-11-12T00:33:59.153Z,6.22
2022-11-12T00:36:46.102Z,6.20
2022-11-12T00:39:33.241Z,6.17
2022-11-12T00:42:19.986Z,6.15
2022-11-12T00:45:07.128Z,6.12
2022-11-12T00:47:56.300Z,6.09
2022-11-12T00:50:43.108Z,6.06
2022-11-12T00:53:30.038Z,6.03
2022-11-12T00:56:16.893Z,6.00
2022-11-12T00:59:03.968Z,5.96
2022-11-12T01:01:50.609Z,5.92
2022-11-12T01:04:37.351Z,5.90
2022-11-12T01:07:23.995Z,5.90
2022-11-12T01:10:11.780Z,5.91
2022-11-12T01:12:58.653Z,5.93
2022-11-12T01:15:45.644Z,5.94
2022-11-12T01:18:32.341Z,5.96
2022-11-12T01:21:18.964Z,5.98
2022-11-12T01:24:05.924Z,6.00
2022-11-12T01:26:52.682Z,6.01
2022-11-12T01:29:39.424Z,6.05
2022-11-12T01:32:28.012Z,6.07
2022-11-12T01:35:15.065Z,6.07
2022-11-12T01:38:02.118Z,6.06
2022-11-12T01:40:48.695Z,6.06
2022-11-12T01:43:36.204Z,6.05
2022-11-12T01:46:29.054Z,6.05
2022-11-12T01:49:24.544Z,6.03
2022-11-12T01:52:21.314Z,6.00
2022-11-12T01:55:12.852Z,5.97
2022-11-12T01:58:14.677Z,5.93
2022-11-12T02:01:02.728Z,5.89
2022-11-12T02:03:49.812Z,5.86
2022-11-12T02:06:37.677Z,5.83
2022-11-12T02:09:26.201Z,5.80
2022-11-12T02:12:32.793Z,5.76
2022-11-12T02:15:19.340Z,5.70
2022-11-12T02:18:06.624Z,5.65
2022-11-12T02:21:03.446Z,5.61
2022-11-12T02:24:13.800Z,5.58
2022-11-12T02:27:01.053Z,5.56
2022-11-12T02:29:48.087Z,5.53
2022-11-12T02:32:34.793Z,5.50
2022-11-12T02:35:21.765Z,5.46
2022-11-12T02:38:09.478Z,5.43
2022-11-12T02:40:56.613Z,5.40
2022-11-12T02:43:43.821Z,5.37
2022-11-12T02:46:30.582Z,5.33
2022-11-12T02:49:17.197Z,5.31
2022-11-12T02:52:05.146Z,5.28
2022-11-12T02:54:52.055Z,5.26
2022-11-12T02:57:40.288Z,5.24
2022-11-12T03:00:26.982Z,5.22
2022-11-12T03:03:13.481Z,5.18
2022-11-12T03:06:01.584Z,5.17
2022-11-12T03:08:48.429Z,5.17
2022-11-12T03:11:35.341Z,5.16
2022-11-12T03:14:22.081Z,5.15
2022-11-12T03:17:08.835Z,5.14
2022-11-12T03:19:55.684Z,5.15
2022-11-12T03:22:42.823Z,5.16
2022-11-12T03:25:29.819Z,5.16
2022-11-12T03:28:17.617Z,5.15
2022-11-12T03:31:04.707Z,5.16
2022-11-12T03:33:51.589Z,5.15
2022-11-12T03:36:38.585Z,5.14
2022-11-12T03:39:25.113Z,5.11
2022-11-12T03:42:11.959Z,5.06
2022-11-12T03:44:58.869Z,5.00
2022-11-12T03:47:47.737Z,4.96
2022-11-12T03:50:34.508Z,4.91
2022-11-12T03:53:21.795Z,4.86
2022-11-12T03:56:08.505Z,4.79
2022-11-12T03:58:55.476Z,4.72
2022-11-12T04:01:42.327Z,4.66
2022-11-12T04:04:49.473Z,4.60
2022-11-12T04:07:54.977Z,4.55
2022-11-12T04:10:41.687Z,4.49
2022-11-12T04:13:29.369Z,4.42
2022-11-12T04:16:37.887Z,4.38
2022-11-12T04:19:43.330Z,4.34
2022-11-12T04:22:30.240Z,4.31
2022-11-12T04:25:35.881Z,4.29
2022-11-12T04:28:22.967Z,4.26
2022-11-12T04:31:09.832Z,4.23
2022-11-12T04:34:16.862Z,4.16
2022-11-12T04:37:06.365Z,4.09
2022-11-12T04:39:54.105Z,4.01
2022-11-12T04:42:59.588Z,3.91
2022-11-12T04:45:50.080Z,3.85
2022-11-12T04:48:36.973Z,3.79
2022-11-12T04:51:42.403Z,3.72
2022-11-12T04:54:29.272Z,3.63
2022-11-12T04:57:15.959Z,3.54
2022-11-12T05:00:03.702Z,3.47
2022-11-12T05:02:51.429Z,3.38
2022-11-12T05:05:38.269Z,3.29
2022-11-12T05:08:25.377Z,3.20
2022-11-12T05:11:13.087Z,3.14
2022-11-12T05:14:00.092Z,3.01
2022-11-12T05:16:47.065Z,2.90
2022-11-12T05:19:35.146Z,2.82
2022-11-12T05:22:42.570Z,2.79
2022-11-12T05:25:28.776Z,2.76
2022-11-12T05:28:15.535Z,2.75
2022-11-12T05:31:02.535Z,2.74
2022-11-12T05:33:49.495Z,2.70
2022-11-12T05:36:36.288Z,2.64
2022-11-12T05:39:23.486Z,2.58
2022-11-12T05:42:13.887Z,2.53
2022-11-12T05:45:01.504Z,2.49
2022-11-12T05:47:48.231Z,2.46
2022-11-12T05:50:45.264Z,2.43
2022-11-12T05:53:42.548Z,2.42
2022-11-12T05:56:29.954Z,2.37
2022-11-12T05:59:16.817Z,2.30
2022-11-12T06:02:03.469Z,2.26
2022-11-12T06:04:50.470Z,2.22
2022-11-12T06:07:37.265Z,2.22
2022-11-12T06:10:24.275Z,2.23
2022-11-12T06:13:11.310Z,2.24
2022-11-12T06:15:58.737Z,2.25
2022-11-12T06:18:45.632Z,2.26
2022-11-12T06:21:32.391Z,2.27
2022-11-12T06:24:19.606Z,2.29
2022-11-12T06:27:06.176Z,2.32
2022-11-12T06:29:53.066Z,2.33
2022-11-12T06:32:40.175Z,2.35
2022-11-12T06:35:27.032Z,2.39
2022-11-12T06:38:14.038Z,2.45
2022-11-12T06:41:01.310Z,2.51
2022-11-12T06:43:48.587Z,2.59
2022-11-12T06:46:35.236Z,2.68
2022-11-12T06:49:22.301Z,2.75
2022-11-12T06:52:13.644Z,2.85
2022-11-12T06:55:03.816Z,2.94
2022-11-12T06:57:54.051Z,3.01
2022-11-12T07:00:40.655Z,3.09
2022-11-12T07:03:27.461Z,3.20
2022-11-12T07:06:19.306Z,3.32
2022-11-12T07:09:06.584Z,3.45
2022-11-12T07:11:53.519Z,3.56
2022-11-12T07:14:40.319Z,3.67
2022-11-12T07:17:27.011Z,3.81
2022-11-12T07:20:13.815Z,3.94
2022-11-12T07:23:01.571Z,4.06
2022-11-12T07:25:55.725Z,4.18
2022-11-12T07:28:43.150Z,4.33
2022-11-12T07:31:29.970Z,4.48
2022-11-12T07:34:16.622Z,4.61
2022-11-12T07:37:03.241Z,4.77
2022-11-12T07:39:50.738Z,4.90
2022-11-12T07:42:37.385Z,5.02
2022-11-12T07:45:24.283Z,5.16
2022-11-12T07:48:11.366Z,5.31
2022-11-12T07:51:04.693Z,5.48
2022-11-12T07:53:59.009Z,5.65
2022-11-12T07:56:46.253Z,5.84
2022-11-12T07:59:33.257Z,6.07
2022-11-12T08:02:19.963Z,6.26
2022-11-12T08:05:14.471Z,6.40
2022-11-12T08:08:04.839Z,6.56
2022-11-12T08:10:55.767Z,6.72
2022-11-12T08:13:42.562Z,6.90
2022-11-12T08:16:29.982Z,7.10
2022-11-12T08:19:16.773Z,7.31
2022-11-12T08:22:06.095Z,7.54
2022-11-12T08:24:53.176Z,7.83
2022-11-12T08:27:39.806Z,8.12
2022-11-12T08:30:28.295Z,8.41
2022-11-12T08:33:15.112Z,8.69
2022-11-12T08:36:06.489Z,8.97
2022-11-12T08:38:54.278Z,9.25
2022-11-12T08:41:41.347Z,9.48
2022-11-12T08:44:28.132Z,9.67
2022-11-12T08:47:14.987Z,9.88
2022-11-12T08:50:01.978Z,10.08
2022-11-12T08:52:48.865Z,10.25
2022-11-12T08:55:35.956Z,10.42
2022-11-12T08:58:23.899Z,10.54
2022-11-12T09:01:11.278Z,10.67
2022-11-12T09:03:58.160Z,10.81
2022-11-12T09:06:46.723Z,10.96
2022-11-12T09:09:36.739Z,11.07
2022-11-12T09:12:24.221Z,11.16
2022-11-12T09:18:18.745Z,11.36
2022-11-12T09:21:08.727Z,11.44
2022-11-12T09:23:56.054Z,11.47
2022-11-12T09:26:42.809Z,11.52
2022-11-12T09:29:29.581Z,11.62
2022-11-12T09:32:16.188Z,11.73
2022-11-12T09:35:02.911Z,11.84
2022-11-12T09:37:49.603Z,11.96
2022-11-12T09:40:51.571Z,12.02
2022-11-12T09:43:47.704Z,12.08
2022-11-12T09:46:59.521Z,12.17
2022-11-12T09:50:12.602Z,12.31
2022-11-12T09:53:11.754Z,12.49
2022-11-12T09:55:59.086Z,12.62
2022-11-12T09:58:49.056Z,12.69
2022-11-12T10:01:54.197Z,12.84
2022-11-12T10:05:05.260Z,12.98
2022-11-12T10:08:20.447Z,13.07
2022-11-12T10:11:07.085Z,13.19
2022-11-12T10:14:13.973Z,13.26
2022-11-12T10:17:19.520Z,13.34
2022-11-12T10:20:15.206Z,13.42
2022-11-12T10:23:16.959Z,13.49
2022-11-12T10:26:12.759Z,13.52
2022-11-12T10:29:11.408Z,13.60
2022-11-12T10:32:01.823Z,13.68
2022-11-12T10:34:48.308Z,13.74
2022-11-12T10:38:01.565Z,13.79
2022-11-12T10:40:48.364Z,13.91
2022-11-12T10:43:34.864Z,14.05
2022-11-12T10:46:24.861Z,14.17
2022-11-12T10:49:14.503Z,14.17
2022-11-12T10:52:01.122Z,14.21
2022-11-12T10:54:53.938Z,14.29
2022-11-12T10:57:42.068Z,14.36
2022-11-12T11:00:29.636Z,14.44
2022-11-12T11:03:21.106Z,14.60
2022-11-12T11:06:21.721Z,14.79
2022-11-12T11:09:21.600Z,14.97
2022-11-12T11:12:26.376Z,15.05
2022-11-12T11:15:16.206Z,15.21
2022-11-12T11:18:03.059Z,15.48
2022-11-12T11:21:06.610Z,15.61
2022-11-12T11:24:16.342Z,15.63
2022-11-12T11:27:30.624Z,15.54
2022-11-12T11:30:20.734Z,15.40
2022-11-12T11:33:24.151Z,15.37
2022-11-12T11:36:29.216Z,15.36
2022-11-12T11:39:30.639Z,15.34
2022-11-12T11:42:25.334Z,15.36
2022-11-12T11:45:35.453Z,15.44
2022-11-12T11:48:51.832Z,15.48
2022-11-12T11:51:57.098Z,15.58
2022-11-12T11:55:05.296Z,15.89
2022-11-12T11:57:58.206Z,16.11
2022-11-12T12:00:51.158Z,16.17
2022-11-12T12:04:05.837Z,16.18
2022-11-12T12:06:55.537Z,16.09
2022-11-12T12:09:57.694Z,16.03
2022-11-12T12:13:07.840Z,15.93
2022-11-12T12:16:06.655Z,15.79
2022-11-12T12:19:23.285Z,15.67
2022-11-12T12:22:15.305Z,15.62
2022-11-12T12:25:15.301Z,15.67
2022-11-12T12:28:07.589Z,15.71
2022-11-12T12:31:01.185Z,15.67
2022-11-12T12:33:58.717Z,15.71
2022-11-12T12:36:50.055Z,15.75
2022-11-12T12:39:58.905Z,15.76
2022-11-12T12:42:51.009Z,15.73
2022-11-12T12:45:42.494Z,15.66
2022-11-12T12:48:36.292Z,15.76
2022-11-12T12:51:24.650Z,15.84
2022-11-12T12:54:39.568Z,15.79
2022-11-12T12:57:37.492Z,15.72
2022-11-12T13:00:29.411Z,15.62
2022-11-12T13:03:45.035Z,15.67
2022-11-12T13:06:41.031Z,15.67
2022-11-12T13:09:29.026Z,15.66
2022-11-12T13:12:17.648Z,15.80
2022-11-12T13:15:15.866Z,15.96
2022-11-12T13:18:02.617Z,16.15
2022-11-12T13:21:11.349Z,16.15
2022-11-12T13:24:06.708Z,16.09
2022-11-12T13:26:55.857Z,15.95
2022-11-12T13:29:44.208Z,15.68
2022-11-12T13:32:38.167Z,15.42
2022-11-12T13:35:36.398Z,15.17
2022-11-12T13:38:23.956Z,14.88
2022-11-12T13:41:43.115Z,14.68
2022-11-12T13:44:30.084Z,14.42
2022-11-12T13:47:20.538Z,14.23
2022-11-12T13:50:09.851Z,14.06
2022-11-12T13:52:56.715Z,13.91
2022-11-12T13:55:51.405Z,13.76
2022-11-12T13:58:43.566Z,13.60
2022-11-12T14:01:31.903Z,13.46
2022-11-12T14:04:22.388Z,13.34
2022-11-12T14:07:27.321Z,13.24
2022-11-12T14:10:46.443Z,13.11
2022-11-12T14:14:01.591Z,13.07
2022-11-12T14:17:03.513Z,12.99
2022-11-12T14:20:21.200Z,12.88
2022-11-12T14:23:21.526Z,12.78
2022-11-12T14:26:13.244Z,12.66
2022-11-12T14:28:59.950Z,12.56
2022-11-12T14:32:01.865Z,12.44
2022-11-12T14:34:48.903Z,12.33
2022-11-12T14:37:42.878Z,12.20
2022-11-12T14:40:34.043Z,12.07
2022-11-12T14:43:27.971Z,11.95
2022-11-12T14:46:37.277Z,11.82
2022-11-12T14:49:43.892Z,11.70
2022-11-12T14:52:35.437Z,11.57
2022-11-12T14:55:30.078Z,11.46
2022-11-12T14:58:18.612Z,11.38
2022-11-12T15:02:08.546Z,11.27
2022-11-12T15:04:42.842Z,11.13
2022-11-12T15:07:35.639Z,11.00
2022-11-12T15:10:31.659Z,10.88
2022-11-12T15:13:22.504Z,10.76
2022-11-12T15:16:11.540Z,10.65
2022-11-12T15:19:24.390Z,10.53
2022-11-12T15:22:21.050Z,10.40
2022-11-12T15:25:12.240Z,10.27
2022-11-12T15:28:25.635Z,10.15
2022-11-12T15:31:19.683Z,10.00
2022-11-12T15:34:31.240Z,9.83
2022-11-12T15:37:17.754Z,9.66
2022-11-12T15:40:15.868Z,9.52
2022-11-12T15:43:03.289Z,9.37
2022-11-12T15:45:51.759Z,9.23
2022-11-12T15:48:38.647Z,9.06
2022-11-12T15:51:25.570Z,8.88
2022-11-12T15:54:12.246Z,8.74
2022-11-12T15:56:59.366Z,8.63
2022-11-12T16:00:07.521Z,8.54
2022-11-12T16:03:05.940Z,8.42
2022-11-12T16:05:52.593Z,8.33
2022-11-12T16:08:39.372Z,8.25
2022-11-12T16:11:38.056Z,8.14
2022-11-12T16:14:25.232Z,8.02
2022-11-12T16:17:14.800Z,7.93
2022-11-12T16:20:01.506Z,7.84
2022-11-12T16:22:48.810Z,7.72
2022-11-12T16:25:38.208Z,7.61
2022-11-12T16:28:24.932Z,7.44
2022-11-12T16:31:11.879Z,7.22
2022-11-12T16:33:58.473Z,7.07
2022-11-12T16:36:47.317Z,6.95
2022-11-12T16:39:34.051Z,6.88
2022-11-12T16:42:20.600Z,6.81
2022-11-12T16:45:08.081Z,6.75
2022-11-12T16:47:55.681Z,6.70
2022-11-12T16:50:42.409Z,6.66
2022-11-12T16:53:29.519Z,6.62
2022-11-12T16:56:19.444Z,6.58
2022-11-12T16:59:06.427Z,6.53
2022-11-12T17:01:53.096Z,6.44
2022-11-12T17:04:39.846Z,6.34
2022-11-12T17:07:26.348Z,6.27
2022-11-12T17:10:13.106Z,6.21
2022-11-12T17:12:59.850Z,6.14
2022-11-12T17:15:46.554Z,6.08
2022-11-12T17:18:34.179Z,5.99
2022-11-12T17:21:21.186Z,5.84
2022-11-12T17:24:08.806Z,5.75
2022-11-12T17:26:55.765Z,5.66
2022-11-12T17:29:42.294Z,5.59
2022-11-12T17:32:29.142Z,5.52
2022-11-12T17:35:16.746Z,5.44
2022-11-12T17:38:04.028Z,5.34
2022-11-12T17:40:55.363Z,5.26
2022-11-12T17:43:41.956Z,5.19
2022-11-12T17:46:29.675Z,5.12
2022-11-12T17:49:16.891Z,5.07
2022-11-12T17:52:03.654Z,5.01
2022-11-12T17:54:50.492Z,4.93
2022-11-12T17:57:37.240Z,4.81
2022-11-12T18:00:23.760Z,4.72
2022-11-12T18:03:10.233Z,4.65
2022-11-12T18:05:58.687Z,4.59
2022-11-12T18:08:45.663Z,4.52
2022-11-12T18:11:44.512Z,4.45
2022-11-12T18:14:30.987Z,4.39
2022-11-12T18:17:17.816Z,4.31
2022-11-12T18:20:05.515Z,4.23
2022-11-12T18:22:52.116Z,4.14
2022-11-12T18:25:39.291Z,4.05
2022-11-12T18:28:25.901Z,3.98
2022-11-12T18:31:13.125Z,3.92
2022-11-12T18:33:59.542Z,3.89
2022-11-12T18:36:45.982Z,3.87
2022-11-12T18:39:33.367Z,3.85
2022-11-12T18:42:20.076Z,3.83
2022-11-12T18:45:07.278Z,3.82
2022-11-12T18:47:54.716Z,3.82
2022-11-12T18:50:41.295Z,3.83
2022-11-12T18:53:29.645Z,3.85
2022-11-12T18:56:20.115Z,3.88
2022-11-12T18:59:06.727Z,3.93
2022-11-12T19:01:53.371Z,3.96
2022-11-12T19:04:45.204Z,3.97
2022-11-12T19:07:32.181Z,3.99
2022-11-12T19:10:18.766Z,4.04
2022-11-12T19:13:06.691Z,4.08
2022-11-12T19:15:53.525Z,4.13
2022-11-12T19:18:41.611Z,4.19
2022-11-12T19:21:28.407Z,4.25
2022-11-12T19:24:15.481Z,4.31
2022-11-12T19:27:02.120Z,4.36
2022-11-12T19:29:50.359Z,4.42
2022-11-12T19:32:36.867Z,4.48
2022-11-12T19:35:24.770Z,4.56
2022-11-12T19:38:11.394Z,4.61
2022-11-12T19:41:10.588Z,4.67
2022-11-12T19:44:00.319Z,4.73
2022-11-12T19:46:47.114Z,4.80
2022-11-12T19:49:33.916Z,4.84
2022-11-12T19:52:22.437Z,4.90
2022-11-12T19:55:08.841Z,4.96
2022-11-12T19:57:56.502Z,5.02
2022-11-12T20:00:44.158Z,5.08
2022-11-12T20:03:32.411Z,5.15
2022-11-12T20:06:22.491Z,5.22
2022-11-12T20:09:10.188Z,5.30
2022-11-12T20:11:56.652Z,5.36
2022-11-12T20:14:43.376Z,5.40
2022-11-12T20:17:32.503Z,5.46
2022-11-12T20:20:20.757Z,5.52
2022-11-12T20:23:08.149Z,5.59
2022-11-12T20:26:05.440Z,5.67
2022-11-12T20:28:52.049Z,5.75
2022-11-12T20:31:42.119Z,5.80
2022-11-12T20:34:28.739Z,5.83
2022-11-12T20:37:15.242Z,5.86
2022-11-12T20:40:02.070Z,5.89
2022-11-12T20:42:51.908Z,5.94
2022-11-12T20:45:38.323Z,5.99
2022-11-12T20:48:25.325Z,6.02
2022-11-12T20:51:28.698Z,6.03
2022-11-12T20:54:16.214Z,6.06
2022-11-12T20:57:03.420Z,6.09
2022-11-12T20:59:51.735Z,6.13
2022-11-12T21:02:38.616Z,6.19
2022-11-12T21:05:25.406Z,6.23
2022-11-12T21:08:11.981Z,6.28
2022-11-12T21:11:01.034Z,6.34
2022-11-12T21:13:47.820Z,6.40
2022-11-12T21:16:34.937Z,6.44
2022-11-12T21:19:21.682Z,6.49
2022-11-12T21:22:08.261Z,6.53
2022-11-12T21:24:54.924Z,6.57
2022-11-12T21:27:41.561Z,6.61
2022-11-12T21:30:28.152Z,6.65
2022-11-12T21:33:14.695Z,6.68
2022-11-12T21:36:02.500Z,6.71
2022-11-12T21:38:49.925Z,6.74
2022-11-12T21:41:36.296Z,6.77
2022-11-12T21:44:23.230Z,6.79
2022-11-12T21:47:09.851Z,6.80
2022-11-12T21:49:56.337Z,6.83
2022-11-12T21:52:42.955Z,6.84
2022-11-12T21:55:29.556Z,6.86
2022-11-12T21:58:16.017Z,6.87
2022-11-12T22:01:13.104Z,6.88
2022-11-12T22:04:00.377Z,6.90
2022-11-12T22:06:47.339Z,6.91
2022-11-12T22:09:33.956Z,6.93
2022-11-12T22:12:20.859Z,6.94
2022-11-12T22:15:07.967Z,6.95
2022-11-12T22:17:54.979Z,6.97
2022-11-12T22:20:41.357Z,6.99
2022-11-12T22:23:28.248Z,7.00
2022-11-12T22:26:25.231Z,7.00
2022-11-12T22:29:11.820Z,6.99
2022-11-12T22:31:58.525Z,6.99
2022-11-12T22:34:49.320Z,6.99
2022-11-12T22:37:36.225Z,6.97
2022-11-12T22:40:23.087Z,6.96
2022-11-12T22:43:09.803Z,6.95
2022-11-12T22:45:56.447Z,6.96
2022-11-12T22:48:43.042Z,6.97
2022-11-12T22:51:31.672Z,6.98
2022-11-12T22:54:18.172Z,6.98
2022-11-12T22:57:04.792Z,6.96
2022-11-12T22:59:51.567Z,6.95
2022-11-12T23:02:40.319Z,6.94
2022-11-12T23:05:29.832Z,6.93
2022-11-12T23:08:16.547Z,6.92
2022-11-12T23:11:05.996Z,6.91
2022-11-12T23:13:53.794Z,6.91
2022-11-12T23:16:40.604Z,6.92
2022-11-12T23:19:27.581Z,6.91
2022-11-12T23:22:14.283Z,6.91
2022-11-12T23:25:01.024Z,6.92
2022-11-12T23:27:47.520Z,6.92
2022-11-12T23:30:35.058Z,6.92
2022-11-12T23:33:21.692Z,6.94
2022-11-12T23:36:09.812Z,6.93
2022-11-12T23:38:57.174Z,6.91
2022-11-12T23:41:44.072Z,6.89
2022-11-12T23:44:30.781Z,6.88
2022-11-12T23:47:17.683Z,6.88
2022-11-12T23:50:04.430Z,6.87
2022-11-12T23:52:50.976Z,6.85
2022-11-12T23:55:38.687Z,6.83
2022-11-12T23:58:25.669Z,6.78
